sensor_id;sensor_type;location;lat;lon;timestamp;pressure;altitude;pressure_sealevel;temperature;humidity
48810;BME280;40070;47.322;18.784;2023-04-02T00:02:25;993.03;;;10.69;64.05
48810;BME280;40070;47.322;18.784;2023-04-02T00:04:26;993.07;;;10.72;64.08
48810;BME280;40070;47.322;18.784;2023-04-02T00:06:31;993.08;;;10.79;63.83
48810;BME280;40070;47.322;18.784;2023-04-02T00:08:35;993.09;;;11.00;63.13
48810;BME280;40070;47.322;18.784;2023-04-02T00:10:38;993.10;;;11.00;63.09
48810;BME280;40070;47.322;18.784;2023-04-02T00:12:39;993.09;;;11.07;63.09
48810;BME280;40070;47.322;18.784;2023-04-02T00:14:53;993.16;;;11.02;63.12
48810;BME280;40070;47.322;18.784;2023-04-02T00:16:54;993.16;;;11.07;63.20
48810;BME280;40070;47.322;18.784;2023-04-02T00:18:59;993.17;;;11.25;62.66
48810;BME280;40070;47.322;18.784;2023-04-02T00:21:12;993.19;;;11.51;61.88
48810;BME280;40070;47.322;18.784;2023-04-02T00:23:14;993.16;;;11.25;62.53
48810;BME280;40070;47.322;18.784;2023-04-02T00:25:15;993.20;;;11.37;62.03
48810;BME280;40070;47.322;18.784;2023-04-02T00:27:16;993.19;;;11.27;62.47
48810;BME280;40070;47.322;18.784;2023-04-02T00:29:18;993.21;;;11.44;61.89
48810;BME280;40070;47.322;18.784;2023-04-02T00:31:19;993.23;;;11.27;62.59
48810;BME280;40070;47.322;18.784;2023-04-02T00:33:21;993.24;;;11.35;62.43
48810;BME280;40070;47.322;18.784;2023-04-02T00:35:26;993.24;;;11.38;62.34
48810;BME280;40070;47.322;18.784;2023-04-02T00:37:29;993.29;;;11.23;62.67
48810;BME280;40070;47.322;18.784;2023-04-02T00:39:31;993.28;;;11.15;63.32
48810;BME280;40070;47.322;18.784;2023-04-02T00:41:34;993.30;;;11.08;63.29
48810;BME280;40070;47.322;18.784;2023-04-02T00:43:36;993.29;;;11.09;63.13
48810;BME280;40070;47.322;18.784;2023-04-02T00:45:37;993.30;;;11.04;63.29
48810;BME280;40070;47.322;18.784;2023-04-02T00:47:39;993.32;;;11.13;63.20
48810;BME280;40070;47.322;18.784;2023-04-02T00:49:40;993.36;;;10.90;63.71
48810;BME280;40070;47.322;18.784;2023-04-02T00:51:43;993.37;;;10.86;63.71
48810;BME280;40070;47.322;18.784;2023-04-02T00:53:46;993.41;;;10.83;64.13
48810;BME280;40070;47.322;18.784;2023-04-02T00:55:48;993.47;;;10.98;63.64
48810;BME280;40070;47.322;18.784;2023-04-02T00:57:49;993.42;;;11.01;63.32
48810;BME280;40070;47.322;18.784;2023-04-02T00:59:55;993.43;;;10.98;63.33
48810;BME280;40070;47.322;18.784;2023-04-02T01:01:59;993.43;;;10.90;63.72
48810;BME280;40070;47.322;18.784;2023-04-02T01:04:01;993.41;;;10.94;63.76
48810;BME280;40070;47.322;18.784;2023-04-02T01:06:03;993.45;;;10.94;63.58
48810;BME280;40070;47.322;18.784;2023-04-02T01:10:31;993.48;;;10.78;64.00
48810;BME280;40070;47.322;18.784;2023-04-02T01:12:42;993.48;;;11.06;63.44
48810;BME280;40070;47.322;18.784;2023-04-02T01:21:37;993.49;;;11.11;62.94
48810;BME280;40070;47.322;18.784;2023-04-02T01:23:47;993.49;;;11.01;63.38
48810;BME280;40070;47.322;18.784;2023-04-02T01:30:33;993.47;;;11.57;61.90
48810;BME280;40070;47.322;18.784;2023-04-02T01:32:35;993.47;;;11.53;62.09
48810;BME280;40070;47.322;18.784;2023-04-02T01:34:36;993.49;;;11.60;61.51
48810;BME280;40070;47.322;18.784;2023-04-02T01:36:44;993.50;;;11.45;61.95
48810;BME280;40070;47.322;18.784;2023-04-02T01:41:16;993.49;;;11.69;61.17
48810;BME280;40070;47.322;18.784;2023-04-02T01:43:28;993.44;;;11.65;61.50
48810;BME280;40070;47.322;18.784;2023-04-02T01:45:31;993.44;;;11.73;61.25
48810;BME280;40070;47.322;18.784;2023-04-02T01:47:32;993.44;;;11.22;62.56
48810;BME280;40070;47.322;18.784;2023-04-02T01:49:33;993.44;;;11.19;62.71
48810;BME280;40070;47.322;18.784;2023-04-02T01:51:34;993.50;;;11.07;63.34
48810;BME280;40070;47.322;18.784;2023-04-02T01:53:39;993.48;;;10.82;64.07
48810;BME280;40070;47.322;18.784;2023-04-02T01:55:47;993.49;;;10.83;64.28
48810;BME280;40070;47.322;18.784;2023-04-02T01:57:49;993.51;;;10.66;64.92
48810;BME280;40070;47.322;18.784;2023-04-02T01:59:53;993.57;;;10.75;64.74
48810;BME280;40070;47.322;18.784;2023-04-02T02:02:01;993.56;;;10.84;64.44
48810;BME280;40070;47.322;18.784;2023-04-02T02:04:03;993.57;;;10.89;64.63
48810;BME280;40070;47.322;18.784;2023-04-02T02:06:04;993.57;;;10.93;64.23
48810;BME280;40070;47.322;18.784;2023-04-02T02:08:06;993.60;;;11.00;64.04
48810;BME280;40070;47.322;18.784;2023-04-02T02:10:14;993.59;;;11.13;63.76
48810;BME280;40070;47.322;18.784;2023-04-02T02:12:16;993.60;;;10.99;64.18
48810;BME280;40070;47.322;18.784;2023-04-02T02:14:24;993.59;;;11.20;63.50
48810;BME280;40070;47.322;18.784;2023-04-02T02:16:26;993.62;;;10.89;64.40
48810;BME280;40070;47.322;18.784;2023-04-02T02:18:28;993.61;;;10.95;64.41
48810;BME280;40070;47.322;18.784;2023-04-02T02:20:29;993.62;;;10.95;64.65
48810;BME280;40070;47.322;18.784;2023-04-02T02:22:32;993.65;;;11.05;63.76
48810;BME280;40070;47.322;18.784;2023-04-02T02:24:34;993.67;;;11.17;63.41
48810;BME280;40070;47.322;18.784;2023-04-02T02:26:35;993.68;;;11.05;64.10
48810;BME280;40070;47.322;18.784;2023-04-02T02:28:38;993.64;;;11.09;63.92
48810;BME280;40070;47.322;18.784;2023-04-02T02:30:42;993.62;;;11.07;63.82
48810;BME280;40070;47.322;18.784;2023-04-02T02:32:52;993.58;;;11.35;63.16
48810;BME280;40070;47.322;18.784;2023-04-02T02:35:06;993.55;;;10.97;63.99
48810;BME280;40070;47.322;18.784;2023-04-02T02:37:15;993.55;;;10.92;64.08
48810;BME280;40070;47.322;18.784;2023-04-02T02:39:36;993.55;;;10.53;65.39
48810;BME280;40070;47.322;18.784;2023-04-02T02:41:52;993.51;;;10.65;65.01
48810;BME280;40070;47.322;18.784;2023-04-02T02:43:56;993.53;;;10.65;65.03
48810;BME280;40070;47.322;18.784;2023-04-02T02:45:59;993.52;;;10.58;65.00
48810;BME280;40070;47.322;18.784;2023-04-02T02:48:02;993.51;;;10.62;64.90
48810;BME280;40070;47.322;18.784;2023-04-02T02:50:05;993.53;;;10.39;65.77
48810;BME280;40070;47.322;18.784;2023-04-02T02:52:17;993.49;;;10.24;66.14
48810;BME280;40070;47.322;18.784;2023-04-02T02:54:19;993.46;;;10.33;65.97
48810;BME280;40070;47.322;18.784;2023-04-02T02:56:20;993.52;;;10.31;65.92
48810;BME280;40070;47.322;18.784;2023-04-02T02:58:24;993.45;;;10.33;65.60
48810;BME280;40070;47.322;18.784;2023-04-02T03:00:25;993.43;;;10.22;65.98
48810;BME280;40070;47.322;18.784;2023-04-02T03:02:27;993.45;;;10.34;65.85
48810;BME280;40070;47.322;18.784;2023-04-02T03:04:28;993.48;;;10.28;65.82
48810;BME280;40070;47.322;18.784;2023-04-02T03:06:29;993.48;;;10.45;65.50
48810;BME280;40070;47.322;18.784;2023-04-02T03:08:32;993.50;;;10.34;65.68
48810;BME280;40070;47.322;18.784;2023-04-02T03:10:54;993.49;;;10.39;65.32
48810;BME280;40070;47.322;18.784;2023-04-02T03:12:52;993.55;;;10.36;65.72
48810;BME280;40070;47.322;18.784;2023-04-02T03:15:02;993.49;;;10.11;66.35
48810;BME280;40070;47.322;18.784;2023-04-02T03:17:22;993.54;;;10.16;66.37
48810;BME280;40070;47.322;18.784;2023-04-02T03:19:33;993.58;;;10.40;65.61
48810;BME280;40070;47.322;18.784;2023-04-02T03:21:40;993.58;;;10.09;66.21
48810;BME280;40070;47.322;18.784;2023-04-02T03:23:52;993.61;;;10.07;66.39
48810;BME280;40070;47.322;18.784;2023-04-02T03:26:00;993.66;;;10.09;66.20
48810;BME280;40070;47.322;18.784;2023-04-02T03:28:05;993.72;;;10.15;66.19
48810;BME280;40070;47.322;18.784;2023-04-02T03:32:33;993.78;;;10.42;64.75
48810;BME280;40070;47.322;18.784;2023-04-02T03:34:46;993.79;;;10.63;64.34
48810;BME280;40070;47.322;18.784;2023-04-02T03:36:51;993.82;;;10.75;63.73
48810;BME280;40070;47.322;18.784;2023-04-02T03:39:03;993.85;;;10.89;63.49
48810;BME280;40070;47.322;18.784;2023-04-02T03:41:18;993.88;;;10.84;63.43
48810;BME280;40070;47.322;18.784;2023-04-02T03:43:22;993.89;;;10.94;62.79
48810;BME280;40070;47.322;18.784;2023-04-02T03:45:28;993.97;;;11.02;62.54
48810;BME280;40070;47.322;18.784;2023-04-02T03:48:06;993.97;;;10.96;62.49
48810;BME280;40070;47.322;18.784;2023-04-02T03:49:59;993.98;;;11.03;62.31
48810;BME280;40070;47.322;18.784;2023-04-02T03:52:08;993.95;;;10.35;64.36
48810;BME280;40070;47.322;18.784;2023-04-02T03:54:13;993.94;;;10.09;65.71
48810;BME280;40070;47.322;18.784;2023-04-02T03:56:25;993.93;;;10.01;66.05
48810;BME280;40070;47.322;18.784;2023-04-02T03:58:30;993.93;;;9.96;66.34
48810;BME280;40070;47.322;18.784;2023-04-02T04:00:35;993.94;;;9.89;66.52
48810;BME280;40070;47.322;18.784;2023-04-02T04:02:41;993.93;;;9.93;66.77
48810;BME280;40070;47.322;18.784;2023-04-02T04:04:43;993.96;;;9.81;67.14
48810;BME280;40070;47.322;18.784;2023-04-02T04:06:45;994.00;;;9.73;67.33
48810;BME280;40070;47.322;18.784;2023-04-02T04:08:58;994.00;;;9.59;67.84
48810;BME280;40070;47.322;18.784;2023-04-02T04:11:02;994.07;;;9.66;68.02
48810;BME280;40070;47.322;18.784;2023-04-02T04:13:14;994.05;;;9.68;67.76
48810;BME280;40070;47.322;18.784;2023-04-02T04:19:58;994.11;;;10.00;67.02
48810;BME280;40070;47.322;18.784;2023-04-02T04:22:12;994.14;;;10.35;65.99
48810;BME280;40070;47.322;18.784;2023-04-02T04:24:18;994.16;;;10.43;65.39
48810;BME280;40070;47.322;18.784;2023-04-02T04:26:33;994.19;;;10.33;65.41
48810;BME280;40070;47.322;18.784;2023-04-02T04:28:43;994.23;;;10.49;65.44
48810;BME280;40070;47.322;18.784;2023-04-02T04:30:59;994.31;;;10.68;64.70
48810;BME280;40070;47.322;18.784;2023-04-02T04:33:08;994.35;;;10.70;64.59
48810;BME280;40070;47.322;18.784;2023-04-02T04:37:34;994.43;;;10.83;64.33
48810;BME280;40070;47.322;18.784;2023-04-02T04:39:44;994.41;;;10.94;64.20
48810;BME280;40070;47.322;18.784;2023-04-02T04:41:47;994.45;;;10.85;63.96
48810;BME280;40070;47.322;18.784;2023-04-02T04:44:00;994.43;;;10.80;64.49
48810;BME280;40070;47.322;18.784;2023-04-02T04:46:21;994.43;;;10.49;65.32
48810;BME280;40070;47.322;18.784;2023-04-02T04:48:28;994.43;;;10.38;65.79
48810;BME280;40070;47.322;18.784;2023-04-02T04:50:35;994.46;;;10.39;65.95
48810;BME280;40070;47.322;18.784;2023-04-02T04:52:38;994.51;;;10.31;66.18
48810;BME280;40070;47.322;18.784;2023-04-02T04:54:40;994.45;;;10.41;66.21
48810;BME280;40070;47.322;18.784;2023-04-02T04:56:45;994.48;;;10.41;66.00
48810;BME280;40070;47.322;18.784;2023-04-02T04:58:52;994.45;;;10.49;65.94
48810;BME280;40070;47.322;18.784;2023-04-02T05:00:59;994.47;;;10.36;66.11
48810;BME280;40070;47.322;18.784;2023-04-02T05:03:07;994.42;;;10.36;66.22
48810;BME280;40070;47.322;18.784;2023-04-02T05:05:24;994.48;;;10.27;66.67
48810;BME280;40070;47.322;18.784;2023-04-02T05:07:27;994.51;;;10.28;66.73
48810;BME280;40070;47.322;18.784;2023-04-02T05:09:31;994.49;;;10.44;66.43
48810;BME280;40070;47.322;18.784;2023-04-02T05:11:35;994.53;;;10.64;65.75
48810;BME280;40070;47.322;18.784;2023-04-02T05:13:43;994.50;;;10.52;66.06
48810;BME280;40070;47.322;18.784;2023-04-02T05:20:28;994.53;;;10.65;65.91
48810;BME280;40070;47.322;18.784;2023-04-02T05:22:35;994.52;;;10.75;65.63
48810;BME280;40070;47.322;18.784;2023-04-02T05:24:42;994.57;;;11.06;64.46
48810;BME280;40070;47.322;18.784;2023-04-02T05:26:46;994.56;;;10.58;65.93
48810;BME280;40070;47.322;18.784;2023-04-02T05:29:51;994.56;;;10.69;65.94
48810;BME280;40070;47.322;18.784;2023-04-02T05:31:17;994.58;;;10.66;65.86
48810;BME280;40070;47.322;18.784;2023-04-02T05:33:26;994.61;;;10.66;65.78
48810;BME280;40070;47.322;18.784;2023-04-02T05:35:32;994.60;;;10.74;65.44
48810;BME280;40070;47.322;18.784;2023-04-02T05:37:37;994.65;;;10.86;65.37
48810;BME280;40070;47.322;18.784;2023-04-02T05:39:39;994.65;;;10.83;65.36
48810;BME280;40070;47.322;18.784;2023-04-02T05:41:44;994.68;;;10.91;65.09
48810;BME280;40070;47.322;18.784;2023-04-02T05:43:46;994.70;;;11.21;64.32
48810;BME280;40070;47.322;18.784;2023-04-02T05:45:55;994.72;;;11.22;64.28
48810;BME280;40070;47.322;18.784;2023-04-02T05:47:57;994.74;;;10.97;64.92
48810;BME280;40070;47.322;18.784;2023-04-02T05:52:19;994.71;;;11.30;64.11
48810;BME280;40070;47.322;18.784;2023-04-02T05:54:23;994.67;;;11.39;64.00
48810;BME280;40070;47.322;18.784;2023-04-02T05:56:30;994.62;;;11.86;62.86
48810;BME280;40070;47.322;18.784;2023-04-02T05:58:35;994.61;;;11.70;63.08
48810;BME280;40070;47.322;18.784;2023-04-02T06:00:42;994.66;;;11.64;63.31
48810;BME280;40070;47.322;18.784;2023-04-02T06:02:55;994.63;;;11.75;63.01
48810;BME280;40070;47.322;18.784;2023-04-02T06:04:59;994.65;;;11.71;63.22
48810;BME280;40070;47.322;18.784;2023-04-02T06:09:29;994.68;;;11.43;64.08
48810;BME280;40070;47.322;18.784;2023-04-02T06:11:37;994.74;;;11.68;63.65
48810;BME280;40070;47.322;18.784;2023-04-02T06:13:39;994.73;;;11.73;63.79
48810;BME280;40070;47.322;18.784;2023-04-02T06:15:40;994.72;;;11.71;63.86
48810;BME280;40070;47.322;18.784;2023-04-02T06:17:43;994.78;;;11.68;63.77
48810;BME280;40070;47.322;18.784;2023-04-02T06:19:46;994.77;;;11.71;63.86
48810;BME280;40070;47.322;18.784;2023-04-02T06:21:48;994.76;;;12.01;63.09
48810;BME280;40070;47.322;18.784;2023-04-02T06:24:00;994.79;;;11.78;63.46
48810;BME280;40070;47.322;18.784;2023-04-02T06:26:19;994.85;;;11.94;63.43
48810;BME280;40070;47.322;18.784;2023-04-02T06:28:23;994.85;;;11.84;63.65
48810;BME280;40070;47.322;18.784;2023-04-02T06:30:36;994.85;;;11.88;63.59
48810;BME280;40070;47.322;18.784;2023-04-02T06:32:37;994.91;;;11.93;63.51
48810;BME280;40070;47.322;18.784;2023-04-02T06:34:39;994.95;;;11.90;63.75
48810;BME280;40070;47.322;18.784;2023-04-02T06:36:40;994.99;;;12.02;63.07
48810;BME280;40070;47.322;18.784;2023-04-02T06:38:42;994.89;;;11.94;63.52
48810;BME280;40070;47.322;18.784;2023-04-02T06:40:48;994.96;;;12.18;63.03
48810;BME280;40070;47.322;18.784;2023-04-02T06:42:50;994.96;;;12.33;62.64
48810;BME280;40070;47.322;18.784;2023-04-02T06:44:52;994.99;;;12.43;62.09
48810;BME280;40070;47.322;18.784;2023-04-02T06:46:55;994.99;;;12.49;61.82
48810;BME280;40070;47.322;18.784;2023-04-02T06:49:03;994.96;;;12.71;61.95
48810;BME280;40070;47.322;18.784;2023-04-02T06:51:08;995.00;;;12.83;61.19
48810;BME280;40070;47.322;18.784;2023-04-02T06:53:16;995.02;;;12.68;61.36
48810;BME280;40070;47.322;18.784;2023-04-02T06:55:30;994.96;;;12.84;60.67
48810;BME280;40070;47.322;18.784;2023-04-02T06:57:33;994.99;;;12.75;61.24
48810;BME280;40070;47.322;18.784;2023-04-02T06:59:33;995.01;;;12.95;61.00
48810;BME280;40070;47.322;18.784;2023-04-02T07:01:36;995.03;;;12.90;60.83
48810;BME280;40070;47.322;18.784;2023-04-02T07:03:38;995.00;;;12.81;60.65
48810;BME280;40070;47.322;18.784;2023-04-02T07:05:39;995.05;;;12.70;61.28
48810;BME280;40070;47.322;18.784;2023-04-02T07:07:40;995.04;;;12.69;61.36
48810;BME280;40070;47.322;18.784;2023-04-02T07:09:41;995.09;;;12.69;61.34
48810;BME280;40070;47.322;18.784;2023-04-02T07:11:42;995.11;;;12.86;61.28
48810;BME280;40070;47.322;18.784;2023-04-02T07:13:43;995.12;;;12.97;60.80
48810;BME280;40070;47.322;18.784;2023-04-02T07:15:44;995.16;;;12.84;61.14
48810;BME280;40070;47.322;18.784;2023-04-02T07:17:46;995.19;;;12.96;60.90
48810;BME280;40070;47.322;18.784;2023-04-02T07:19:47;995.13;;;13.08;60.53
48810;BME280;40070;47.322;18.784;2023-04-02T07:21:48;995.21;;;12.83;60.98
48810;BME280;40070;47.322;18.784;2023-04-02T07:23:49;995.22;;;13.01;60.41
48810;BME280;40070;47.322;18.784;2023-04-02T07:25:51;995.21;;;12.77;60.78
48810;BME280;40070;47.322;18.784;2023-04-02T07:27:52;995.26;;;13.00;60.60
48810;BME280;40070;47.322;18.784;2023-04-02T07:29:53;995.23;;;13.29;59.67
48810;BME280;40070;47.322;18.784;2023-04-02T07:31:54;995.22;;;13.30;59.65
48810;BME280;40070;47.322;18.784;2023-04-02T07:33:57;995.28;;;13.16;60.20
48810;BME280;40070;47.322;18.784;2023-04-02T07:35:58;995.23;;;12.99;59.88
48810;BME280;40070;47.322;18.784;2023-04-02T07:37:59;995.28;;;13.27;59.83
48810;BME280;40070;47.322;18.784;2023-04-02T07:40:00;995.27;;;13.35;59.44
48810;BME280;40070;47.322;18.784;2023-04-02T07:42:01;995.24;;;13.69;59.31
48810;BME280;40070;47.322;18.784;2023-04-02T07:44:02;995.27;;;13.92;58.37
48810;BME280;40070;47.322;18.784;2023-04-02T07:46:04;995.31;;;13.87;58.27
48810;BME280;40070;47.322;18.784;2023-04-02T07:48:05;995.32;;;13.72;58.50
48810;BME280;40070;47.322;18.784;2023-04-02T07:50:07;995.32;;;13.46;58.92
48810;BME280;40070;47.322;18.784;2023-04-02T07:52:08;995.35;;;13.79;58.68
48810;BME280;40070;47.322;18.784;2023-04-02T07:54:09;995.35;;;13.92;57.61
48810;BME280;40070;47.322;18.784;2023-04-02T07:56:15;995.36;;;13.77;58.51
48810;BME280;40070;47.322;18.784;2023-04-02T07:58:16;995.35;;;14.08;57.82
48810;BME280;40070;47.322;18.784;2023-04-02T08:00:17;995.37;;;14.18;57.86
48810;BME280;40070;47.322;18.784;2023-04-02T08:02:18;995.39;;;14.38;56.91
48810;BME280;40070;47.322;18.784;2023-04-02T08:04:20;995.40;;;14.47;57.30
48810;BME280;40070;47.322;18.784;2023-04-02T08:06:21;995.44;;;14.56;56.57
48810;BME280;40070;47.322;18.784;2023-04-02T08:08:23;995.48;;;14.46;57.39
48810;BME280;40070;47.322;18.784;2023-04-02T08:10:24;995.50;;;14.74;56.76
48810;BME280;40070;47.322;18.784;2023-04-02T08:12:25;995.53;;;14.59;56.65
48810;BME280;40070;47.322;18.784;2023-04-02T08:14:26;995.54;;;14.76;56.43
48810;BME280;40070;47.322;18.784;2023-04-02T08:16:27;995.53;;;14.62;56.42
48810;BME280;40070;47.322;18.784;2023-04-02T08:18:28;995.52;;;14.89;56.40
48810;BME280;40070;47.322;18.784;2023-04-02T08:20:29;995.53;;;14.79;56.37
48810;BME280;40070;47.322;18.784;2023-04-02T08:22:30;995.55;;;14.59;56.79
48810;BME280;40070;47.322;18.784;2023-04-02T08:24:31;995.57;;;14.59;56.82
48810;BME280;40070;47.322;18.784;2023-04-02T08:26:33;995.59;;;14.59;56.51
48810;BME280;40070;47.322;18.784;2023-04-02T08:28:34;995.63;;;14.54;56.98
48810;BME280;40070;47.322;18.784;2023-04-02T08:30:35;995.59;;;14.56;56.89
48810;BME280;40070;47.322;18.784;2023-04-02T08:32:36;995.62;;;14.71;56.61
48810;BME280;40070;47.322;18.784;2023-04-02T08:34:37;995.67;;;14.46;57.01
48810;BME280;40070;47.322;18.784;2023-04-02T08:36:38;995.66;;;14.10;57.47
48810;BME280;40070;47.322;18.784;2023-04-02T08:38:41;995.66;;;14.27;57.55
48810;BME280;40070;47.322;18.784;2023-04-02T08:40:46;995.69;;;14.16;57.87
48810;BME280;40070;47.322;18.784;2023-04-02T08:42:51;995.74;;;14.14;57.81
48810;BME280;40070;47.322;18.784;2023-04-02T08:47:16;995.74;;;14.00;57.33
48810;BME280;40070;47.322;18.784;2023-04-02T08:49:38;995.72;;;13.81;58.15
48810;BME280;40070;47.322;18.784;2023-04-02T08:51:34;995.82;;;13.85;58.38
48810;BME280;40070;47.322;18.784;2023-04-02T08:53:36;995.79;;;13.84;58.30
48810;BME280;40070;47.322;18.784;2023-04-02T08:55:50;995.80;;;13.92;58.54
48810;BME280;40070;47.322;18.784;2023-04-02T08:57:56;995.80;;;14.42;57.82
48810;BME280;40070;47.322;18.784;2023-04-02T09:00:12;995.80;;;14.30;57.54
48810;BME280;40070;47.322;18.784;2023-04-02T09:02:51;995.80;;;14.43;57.41
48810;BME280;40070;47.322;18.784;2023-04-02T09:04:42;995.89;;;14.57;57.14
48810;BME280;40070;47.322;18.784;2023-04-02T09:06:43;995.84;;;14.43;56.82
48810;BME280;40070;47.322;18.784;2023-04-02T09:08:45;995.87;;;14.75;56.69
48810;BME280;40070;47.322;18.784;2023-04-02T09:13:04;995.88;;;14.17;57.83
48810;BME280;40070;47.322;18.784;2023-04-02T09:17:24;995.91;;;14.15;57.80
48810;BME280;40070;47.322;18.784;2023-04-02T09:19:32;995.93;;;14.31;57.58
48810;BME280;40070;47.322;18.784;2023-04-02T09:21:37;995.93;;;14.58;57.57
48810;BME280;40070;47.322;18.784;2023-04-02T09:23:41;995.99;;;14.71;56.40
48810;BME280;40070;47.322;18.784;2023-04-02T09:25:43;995.97;;;14.53;56.60
48810;BME280;40070;47.322;18.784;2023-04-02T09:27:48;995.98;;;14.44;56.84
48810;BME280;40070;47.322;18.784;2023-04-02T09:29:54;995.98;;;14.62;56.30
48810;BME280;40070;47.322;18.784;2023-04-02T09:34:29;996.05;;;14.51;56.58
48810;BME280;40070;47.322;18.784;2023-04-02T09:36:34;996.07;;;14.49;56.91
48810;BME280;40070;47.322;18.784;2023-04-02T09:38:36;996.07;;;14.65;56.50
48810;BME280;40070;47.322;18.784;2023-04-02T09:40:48;996.08;;;14.62;56.66
48810;BME280;40070;47.322;18.784;2023-04-02T09:42:49;996.09;;;14.59;56.37
48810;BME280;40070;47.322;18.784;2023-04-02T09:47:26;996.16;;;14.44;57.13
48810;BME280;40070;47.322;18.784;2023-04-02T09:49:36;996.12;;;14.37;57.44
48810;BME280;40070;47.322;18.784;2023-04-02T09:51:38;996.12;;;14.51;57.14
48810;BME280;40070;47.322;18.784;2023-04-02T09:53:40;996.15;;;14.55;57.36
48810;BME280;40070;47.322;18.784;2023-04-02T09:55:42;996.14;;;14.89;56.64
48810;BME280;40070;47.322;18.784;2023-04-02T09:57:43;996.13;;;14.82;55.91
48810;BME280;40070;47.322;18.784;2023-04-02T09:59:44;996.19;;;15.14;55.89
48810;BME280;40070;47.322;18.784;2023-04-02T10:01:57;996.17;;;15.21;56.07
48810;BME280;40070;47.322;18.784;2023-04-02T10:03:58;996.11;;;15.45;54.82
48810;BME280;40070;47.322;18.784;2023-04-02T10:06:09;996.18;;;15.30;55.06
48810;BME280;40070;47.322;18.784;2023-04-02T10:08:24;996.20;;;15.36;54.76
48810;BME280;40070;47.322;18.784;2023-04-02T10:10:27;996.19;;;15.17;54.64
48810;BME280;40070;47.322;18.784;2023-04-02T10:12:31;996.27;;;15.10;55.49
48810;BME280;40070;47.322;18.784;2023-04-02T10:14:40;996.20;;;15.11;54.52
48810;BME280;40070;47.322;18.784;2023-04-02T10:16:43;996.12;;;15.33;53.74
48810;BME280;40070;47.322;18.784;2023-04-02T10:18:46;996.15;;;15.57;53.00
48810;BME280;40070;47.322;18.784;2023-04-02T10:20:49;996.07;;;15.55;53.49
48810;BME280;40070;47.322;18.784;2023-04-02T10:22:51;996.05;;;15.51;53.30
48810;BME280;40070;47.322;18.784;2023-04-02T10:24:52;996.08;;;15.68;52.86
48810;BME280;40070;47.322;18.784;2023-04-02T10:29:19;996.01;;;16.10;52.15
48810;BME280;40070;47.322;18.784;2023-04-02T10:31:23;996.06;;;16.17;51.01
48810;BME280;40070;47.322;18.784;2023-04-02T10:33:46;996.03;;;16.36;51.22
48810;BME280;40070;47.322;18.784;2023-04-02T10:36:16;996.03;;;16.30;51.27
48810;BME280;40070;47.322;18.784;2023-04-02T10:38:00;996.05;;;16.39;51.06
48810;BME280;40070;47.322;18.784;2023-04-02T10:40:47;996.03;;;16.51;50.72
48810;BME280;40070;47.322;18.784;2023-04-02T10:42:25;996.07;;;16.81;49.94
48810;BME280;40070;47.322;18.784;2023-04-02T10:44:32;996.02;;;16.42;50.65
48810;BME280;40070;47.322;18.784;2023-04-02T10:46:41;996.01;;;16.35;50.37
48810;BME280;40070;47.322;18.784;2023-04-02T10:48:56;996.00;;;16.21;51.66
48810;BME280;40070;47.322;18.784;2023-04-02T10:51:02;995.98;;;16.40;51.43
48810;BME280;40070;47.322;18.784;2023-04-02T10:53:10;996.00;;;16.67;52.12
48810;BME280;40070;47.322;18.784;2023-04-02T10:55:16;995.98;;;17.00;50.57
48810;BME280;40070;47.322;18.784;2023-04-02T10:59:34;996.00;;;16.62;51.16
48810;BME280;40070;47.322;18.784;2023-04-02T11:01:36;995.96;;;16.69;51.26
48810;BME280;40070;47.322;18.784;2023-04-02T11:03:43;995.97;;;16.45;51.21
48810;BME280;40070;47.322;18.784;2023-04-02T11:05:49;995.92;;;16.93;50.63
48810;BME280;40070;47.322;18.784;2023-04-02T11:08:13;995.87;;;17.15;50.06
48810;BME280;40070;47.322;18.784;2023-04-02T11:10:04;995.93;;;17.39;48.18
48810;BME280;40070;47.322;18.784;2023-04-02T11:12:06;995.85;;;17.28;49.06
48810;BME280;40070;47.322;18.784;2023-04-02T11:14:10;995.87;;;17.29;48.54
48810;BME280;40070;47.322;18.784;2023-04-02T11:16:13;995.82;;;17.60;48.77
48810;BME280;40070;47.322;18.784;2023-04-02T11:18:27;995.81;;;17.62;48.84
48810;BME280;40070;47.322;18.784;2023-04-02T11:23:03;995.84;;;17.42;48.88
48810;BME280;40070;47.322;18.784;2023-04-02T11:25:01;995.88;;;17.66;48.14
48810;BME280;40070;47.322;18.784;2023-04-02T11:29:20;995.95;;;16.98;49.37
48810;BME280;40070;47.322;18.784;2023-04-02T11:31:22;995.93;;;16.68;49.43
48810;BME280;40070;47.322;18.784;2023-04-02T11:35:42;995.92;;;16.42;50.17
48810;BME280;40070;47.322;18.784;2023-04-02T11:37:44;995.89;;;16.68;49.03
48810;BME280;40070;47.322;18.784;2023-04-02T11:39:49;995.92;;;16.79;49.35
48810;BME280;40070;47.322;18.784;2023-04-02T11:42:00;995.92;;;16.83;48.65
48810;BME280;40070;47.322;18.784;2023-04-02T11:44:02;995.88;;;17.10;48.16
48810;BME280;40070;47.322;18.784;2023-04-02T11:46:48;995.83;;;17.07;48.04
48810;BME280;40070;47.322;18.784;2023-04-02T11:48:27;995.86;;;17.00;48.25
48810;BME280;40070;47.322;18.784;2023-04-02T11:50:41;995.88;;;17.22;48.01
48810;BME280;40070;47.322;18.784;2023-04-02T11:52:49;995.87;;;16.94;48.84
48810;BME280;40070;47.322;18.784;2023-04-02T11:55:33;995.89;;;16.58;50.12
48810;BME280;40070;47.322;18.784;2023-04-02T11:57:16;995.89;;;16.10;50.63
48810;BME280;40070;47.322;18.784;2023-04-02T11:59:30;995.85;;;15.99;51.73
48810;BME280;40070;47.322;18.784;2023-04-02T12:09:04;995.91;;;16.87;50.78
48810;BME280;40070;47.322;18.784;2023-04-02T12:11:11;995.83;;;17.30;49.24
48810;BME280;40070;47.322;18.784;2023-04-02T12:13:17;995.82;;;17.65;48.43
48810;BME280;40070;47.322;18.784;2023-04-02T12:17:37;995.81;;;17.31;49.17
48810;BME280;40070;47.322;18.784;2023-04-02T12:19:38;995.76;;;17.46;49.15
48810;BME280;40070;47.322;18.784;2023-04-02T12:21:40;995.80;;;17.25;49.40
48810;BME280;40070;47.322;18.784;2023-04-02T12:23:45;995.76;;;17.37;49.19